createdAt,value
2023-04-16T00:00:35.106Z,0
2023-04-16T00:01:35.700Z,0
2023-04-16T00:02:36.395Z,0
2023-04-16T00:03:37.229Z,0
2023-04-16T00:04:38.090Z,0
2023-04-16T00:05:38.706Z,0
2023-04-16T00:06:39.309Z,0
2023-04-16T00:07:39.895Z,0
2023-04-16T00:08:40.492Z,0
2023-04-16T00:09:41.091Z,0
2023-04-16T00:10:41.691Z,0
2023-04-16T00:11:42.283Z,0
2023-04-16T00:12:42.872Z,0
2023-04-16T00:13:43.468Z,0
2023-04-16T00:14:44.065Z,0
2023-04-16T00:15:44.671Z,0
2023-04-16T00:16:45.297Z,0
2023-04-16T00:17:45.987Z,0
2023-04-16T00:18:46.537Z,0
2023-04-16T00:19:47.099Z,0
2023-04-16T00:20:47.702Z,0
2023-04-16T00:21:48.292Z,0
2023-04-16T00:22:48.910Z,0
2023-04-16T00:23:49.507Z,0
2023-04-16T00:24:50.102Z,0
2023-04-16T00:25:50.697Z,0
2023-04-16T00:26:51.295Z,0
2023-04-16T00:27:51.892Z,0
2023-04-16T00:28:52.489Z,0
2023-04-16T00:29:53.082Z,0
2023-04-16T00:30:53.712Z,0
2023-04-16T00:31:54.272Z,0
2023-04-16T00:32:54.901Z,0
2023-04-16T00:33:55.478Z,0
2023-04-16T00:34:56.074Z,0
2023-04-16T00:35:56.671Z,0
2023-04-16T00:36:57.293Z,0
2023-04-16T00:37:57.903Z,0
2023-04-16T00:38:58.497Z,0
2023-04-16T00:39:59.099Z,0
2023-04-16T00:40:59.691Z,0
2023-04-16T00:42:00.289Z,0
2023-04-16T00:43:00.887Z,0
2023-04-16T00:44:01.501Z,0
2023-04-16T00:45:02.129Z,0
2023-04-16T00:46:02.736Z,0
2023-04-16T00:47:03.296Z,0
2023-04-16T00:48:04.096Z,0
2023-04-16T00:49:04.499Z,0
2023-04-16T00:50:05.094Z,0
2023-04-16T00:51:05.712Z,0
2023-04-16T00:52:06.324Z,0
2023-04-16T00:53:06.920Z,0
2023-04-16T00:54:07.515Z,0
2023-04-16T00:55:08.109Z,0
2023-04-16T00:56:08.702Z,0
2023-04-16T00:57:09.300Z,0
2023-04-16T00:58:09.910Z,0
2023-04-16T00:59:10.841Z,0
2023-04-16T01:00:11.587Z,0
2023-04-16T01:01:12.210Z,0
2023-04-16T01:02:12.975Z,0
2023-04-16T01:03:13.760Z,0
2023-04-16T01:04:14.474Z,0
2023-04-16T01:05:14.995Z,0
2023-04-16T01:06:15.601Z,0
2023-04-16T01:07:16.199Z,0
2023-04-16T01:08:16.817Z,0
2023-04-16T01:09:17.407Z,0
2023-04-16T01:10:18.008Z,0
2023-04-16T01:11:18.603Z,0
2023-04-16T01:12:19.217Z,0
2023-04-16T01:13:19.815Z,0
2023-04-16T01:14:20.403Z,0
2023-04-16T01:15:20.998Z,0
2023-04-16T01:16:21.615Z,0
2023-04-16T01:17:22.267Z,0
2023-04-16T01:18:22.882Z,0
2023-04-16T01:19:23.457Z,0
2023-04-16T01:20:24.052Z,0
2023-04-16T01:21:24.648Z,0
2023-04-16T01:22:25.245Z,0
2023-04-16T01:23:25.835Z,0
2023-04-16T01:24:26.433Z,0
2023-04-16T01:25:27.048Z,0
2023-04-16T01:26:27.644Z,0
2023-04-16T01:27:28.239Z,0
2023-04-16T01:28:28.838Z,0
2023-04-16T01:29:29.440Z,0
2023-04-16T01:30:30.028Z,0
2023-04-16T01:31:30.664Z,0
2023-04-16T01:32:31.275Z,0
2023-04-16T01:33:31.829Z,0
2023-04-16T01:34:32.435Z,0
2023-04-16T01:35:33.025Z,0
2023-04-16T01:36:33.620Z,0
2023-04-16T01:37:34.215Z,0
2023-04-16T01:38:34.827Z,0
2023-04-16T01:39:35.427Z,0
2023-04-16T01:40:36.022Z,0
2023-04-16T01:41:36.619Z,0
2023-04-16T01:42:37.235Z,0
2023-04-16T01:43:40.087Z,0
2023-04-16T01:44:39.401Z,0
2023-04-16T01:45:40.004Z,0
2023-04-16T01:46:40.630Z,0
2023-04-16T01:47:41.249Z,0
2023-04-16T01:48:42.029Z,0
2023-04-16T01:49:42.629Z,0
2023-04-16T01:50:43.214Z,0
2023-04-16T01:51:43.807Z,0
2023-04-16T01:52:44.404Z,0
2023-04-16T01:53:45.000Z,0
2023-04-16T01:54:45.594Z,0
2023-04-16T01:55:46.195Z,0
2023-04-16T01:56:46.812Z,0
2023-04-16T01:57:47.402Z,0
2023-04-16T01:58:47.996Z,0
2023-04-16T01:59:48.588Z,0
2023-04-16T02:00:49.199Z,0
2023-04-16T02:01:49.845Z,0
2023-04-16T02:02:50.526Z,0
2023-04-16T02:03:51.233Z,0
2023-04-16T02:04:51.860Z,0
2023-04-16T02:05:52.470Z,0
2023-04-16T02:06:53.053Z,0
2023-04-16T02:07:53.646Z,0
2023-04-16T02:08:54.250Z,0
2023-04-16T02:09:54.864Z,0
2023-04-16T02:10:55.456Z,0
2023-04-16T02:11:56.051Z,0
2023-04-16T02:12:56.647Z,0
2023-04-16T02:13:57.247Z,0
2023-04-16T02:14:57.835Z,0
2023-04-16T02:15:58.425Z,0
2023-04-16T02:16:59.044Z,0
2023-04-16T02:17:59.707Z,0
2023-04-16T02:19:00.278Z,0
2023-04-16T02:20:00.879Z,0
2023-04-16T02:21:01.487Z,0
2023-04-16T02:22:02.093Z,0
2023-04-16T02:23:02.693Z,0
2023-04-16T02:24:03.290Z,0
2023-04-16T02:25:03.888Z,0
2023-04-16T02:26:04.498Z,0
2023-04-16T02:27:05.092Z,0
2023-04-16T02:28:05.689Z,0
2023-04-16T02:29:06.295Z,0
2023-04-16T02:30:06.878Z,0
2023-04-16T02:31:07.472Z,0
2023-04-16T02:32:08.261Z,0
2023-04-16T02:33:08.677Z,0
2023-04-16T02:34:09.289Z,0
2023-04-16T02:35:09.886Z,0
2023-04-16T02:36:10.486Z,0
2023-04-16T02:37:11.078Z,0
2023-04-16T02:38:11.685Z,0
2023-04-16T02:39:12.271Z,0
2023-04-16T02:40:12.877Z,0
2023-04-16T02:41:13.483Z,0
2023-04-16T02:42:14.080Z,0
2023-04-16T02:43:14.674Z,0
2023-04-16T02:44:15.268Z,0
2023-04-16T02:45:15.887Z,0
2023-04-16T02:46:16.511Z,0
2023-04-16T02:47:17.153Z,0
2023-04-16T02:48:17.696Z,0
2023-04-16T02:49:18.294Z,0
2023-04-16T02:50:18.891Z,0
2023-04-16T02:51:19.500Z,0
2023-04-16T02:52:20.110Z,0
2023-04-16T02:53:20.691Z,0
2023-04-16T02:54:21.286Z,0
2023-04-16T02:55:21.885Z,0
2023-04-16T02:56:22.487Z,0
2023-04-16T02:57:23.097Z,0
2023-04-16T02:58:23.698Z,0
2023-04-16T02:59:24.290Z,0
2023-04-16T03:00:24.885Z,0
2023-04-16T03:01:25.564Z,0
2023-04-16T03:02:26.214Z,0
2023-04-16T03:03:26.801Z,0
2023-04-16T03:04:27.432Z,0
2023-04-16T03:05:27.995Z,0
2023-04-16T03:06:28.593Z,0
2023-04-16T03:07:29.182Z,0
2023-04-16T03:08:29.782Z,0
2023-04-16T03:09:30.398Z,0
2023-04-16T03:10:31.015Z,0
2023-04-16T03:11:31.609Z,0
2023-04-16T03:12:32.204Z,0
2023-04-16T03:13:32.808Z,0
2023-04-16T03:14:33.400Z,0
2023-04-16T03:15:34.007Z,0
2023-04-16T03:16:34.587Z,0
2023-04-16T03:17:35.213Z,0
2023-04-16T03:18:35.782Z,0
2023-04-16T03:19:36.379Z,0
2023-04-16T03:20:36.976Z,0
2023-04-16T03:21:37.573Z,0
2023-04-16T03:22:38.165Z,0
2023-04-16T03:23:38.762Z,0
2023-04-16T03:24:39.354Z,0
2023-04-16T03:25:39.948Z,0
2023-04-16T03:26:40.546Z,0
2023-04-16T03:27:41.149Z,0
2023-04-16T03:28:41.756Z,0
2023-04-16T03:29:42.351Z,0
2023-04-16T03:30:42.969Z,0
2023-04-16T03:31:43.580Z,0
2023-04-16T03:32:44.223Z,0
2023-04-16T03:33:44.748Z,0
2023-04-16T03:34:45.361Z,0
2023-04-16T03:35:45.976Z,0
2023-04-16T03:36:46.583Z,0
2023-04-16T03:37:47.193Z,0
2023-04-16T03:38:47.781Z,0
2023-04-16T03:39:48.382Z,0
2023-04-16T03:40:48.984Z,0
2023-04-16T03:41:49.601Z,0
2023-04-16T03:42:50.195Z,0
2023-04-16T03:43:50.807Z,0
2023-04-16T03:44:51.383Z,0
2023-04-16T03:45:51.977Z,0
2023-04-16T03:46:52.651Z,0
2023-04-16T03:47:53.217Z,0
2023-04-16T03:48:53.777Z,0
2023-04-16T03:49:54.375Z,0
2023-04-16T03:50:54.981Z,0
2023-04-16T03:51:55.566Z,0
2023-04-16T03:52:56.175Z,0
2023-04-16T03:53:56.781Z,0
2023-04-16T03:54:57.384Z,0
2023-04-16T03:55:57.983Z,0
2023-04-16T03:56:58.578Z,4
2023-04-16T03:57:59.168Z,4
2023-04-16T03:58:59.759Z,0
2023-04-16T04:00:00.362Z,4
2023-04-16T04:01:00.946Z,8
2023-04-16T04:02:01.616Z,4
2023-04-16T04:03:02.531Z,8
2023-04-16T04:04:03.339Z,8
2023-04-16T04:05:04.192Z,12
2023-04-16T04:06:04.626Z,8
2023-04-16T04:07:05.241Z,12
2023-04-16T04:08:05.839Z,12
2023-04-16T04:09:06.439Z,12
2023-04-16T04:10:07.045Z,24
2023-04-16T04:11:07.631Z,32
2023-04-16T04:12:08.244Z,36
2023-04-16T04:13:08.839Z,32
2023-04-16T04:14:09.570Z,36
2023-04-16T04:15:10.170Z,52
2023-04-16T04:16:10.798Z,60
2023-04-16T04:17:11.374Z,64
2023-04-16T04:18:11.971Z,64
2023-04-16T04:19:12.571Z,72
2023-04-16T04:20:13.161Z,84
2023-04-16T04:21:13.753Z,88
2023-04-16T04:22:14.360Z,104
2023-04-16T04:23:14.955Z,104
2023-04-16T04:24:15.548Z,124
2023-04-16T04:25:16.142Z,124
2023-04-16T04:26:16.763Z,132
2023-04-16T04:27:17.340Z,168
2023-04-16T04:28:17.955Z,196
2023-04-16T04:29:18.554Z,200
2023-04-16T04:30:19.149Z,204
2023-04-16T04:31:19.782Z,240
2023-04-16T04:32:20.401Z,256
2023-04-16T04:33:20.964Z,252
2023-04-16T04:34:21.562Z,248
2023-04-16T04:35:22.159Z,248
2023-04-16T04:36:22.754Z,276
2023-04-16T04:37:23.355Z,324
2023-04-16T04:38:23.953Z,328
2023-04-16T04:39:24.549Z,292
2023-04-16T04:40:25.198Z,296
2023-04-16T04:41:25.798Z,340
2023-04-16T04:42:26.400Z,352
2023-04-16T04:43:26.994Z,336
2023-04-16T04:44:27.592Z,344
2023-04-16T04:45:31.207Z,356
2023-04-16T04:46:28.803Z,396
2023-04-16T04:47:29.447Z,372
2023-04-16T04:48:30.019Z,400
2023-04-16T04:49:30.645Z,392
2023-04-16T04:50:31.239Z,424
2023-04-16T04:51:31.832Z,440
2023-04-16T04:52:32.435Z,432
2023-04-16T04:53:33.030Z,460
2023-04-16T04:54:33.636Z,516
2023-04-16T04:55:34.229Z,524
2023-04-16T04:56:34.849Z,492
2023-04-16T04:57:35.446Z,600
2023-04-16T04:58:36.052Z,816
2023-04-16T04:59:36.649Z,864
2023-04-16T05:00:37.295Z,712
2023-04-16T05:01:37.966Z,676
2023-04-16T05:02:38.593Z,828
2023-04-16T05:03:39.278Z,860
2023-04-16T05:04:40.050Z,1128
2023-04-16T05:05:40.625Z,1108
2023-04-16T05:06:41.222Z,1000
2023-04-16T05:07:41.823Z,884
2023-04-16T05:08:42.482Z,840
2023-04-16T05:09:43.078Z,864
2023-04-16T05:10:43.680Z,1004
2023-04-16T05:11:44.286Z,1060
2023-04-16T05:12:44.917Z,1092
2023-04-16T05:13:45.504Z,1008
2023-04-16T05:14:46.115Z,996
2023-04-16T05:15:46.711Z,908
2023-04-16T05:16:47.344Z,1164
2023-04-16T05:17:47.971Z,1044
2023-04-16T05:18:48.550Z,884
2023-04-16T05:19:49.143Z,808
2023-04-16T05:20:49.743Z,888
2023-04-16T05:21:50.336Z,952
2023-04-16T05:22:50.936Z,860
2023-04-16T05:23:51.536Z,940
2023-04-16T05:24:52.184Z,1008
2023-04-16T05:25:52.782Z,1072
2023-04-16T05:26:53.394Z,1252
2023-04-16T05:27:54.008Z,1244
2023-04-16T05:28:54.604Z,1168
2023-04-16T05:29:55.200Z,1220
2023-04-16T05:30:55.816Z,1252
2023-04-16T05:31:56.399Z,1292
2023-04-16T05:32:57.014Z,1500
2023-04-16T05:33:57.598Z,1928
2023-04-16T05:34:58.205Z,2016
2023-04-16T05:35:58.807Z,1436
2023-04-16T05:36:59.415Z,1372
2023-04-16T05:38:00.020Z,1308
2023-04-16T05:39:00.615Z,1428
2023-04-16T05:40:01.215Z,1528
2023-04-16T05:41:01.836Z,1400
2023-04-16T05:42:02.415Z,1408
2023-04-16T05:43:03.021Z,1612
2023-04-16T05:44:03.611Z,1592
2023-04-16T05:45:04.319Z,1524
2023-04-16T05:46:04.857Z,1556
2023-04-16T05:47:05.437Z,1708
2023-04-16T05:48:06.052Z,1748
2023-04-16T05:49:06.713Z,1772
2023-04-16T05:50:07.290Z,1592
2023-04-16T05:51:07.888Z,1736
2023-04-16T05:52:08.486Z,2192
2023-04-16T05:53:09.131Z,2628
2023-04-16T05:54:09.704Z,2524
2023-04-16T05:55:10.316Z,2868
2023-04-16T05:56:10.930Z,3352
2023-04-16T05:57:11.525Z,3528
2023-04-16T05:58:12.148Z,3636
2023-04-16T05:59:12.745Z,4128
2023-04-16T06:00:13.349Z,3412
2023-04-16T06:01:13.956Z,3380
2023-04-16T06:02:14.641Z,3732
2023-04-16T06:03:15.383Z,3696
2023-04-16T06:04:16.175Z,4176
2023-04-16T06:05:16.817Z,4908
2023-04-16T06:06:17.414Z,5792
2023-04-16T06:07:18.014Z,6400
2023-04-16T06:08:18.623Z,6296
2023-04-16T06:09:19.231Z,5184
2023-04-16T06:10:19.811Z,4812
2023-04-16T06:11:20.410Z,5144
2023-04-16T06:12:21.011Z,6884
2023-04-16T06:13:21.618Z,8216
2023-04-16T06:14:22.217Z,6752
2023-04-16T06:15:22.815Z,5616
2023-04-16T06:16:23.465Z,5260
2023-04-16T06:17:24.123Z,6460
2023-04-16T06:18:24.677Z,7776
2023-04-16T06:19:25.271Z,9868
2023-04-16T06:20:25.869Z,8588
2023-04-16T06:21:26.472Z,7016
2023-04-16T06:22:27.072Z,6616
2023-04-16T06:23:27.674Z,7532
2023-04-16T06:24:28.277Z,6144
2023-04-16T06:25:28.900Z,5820
2023-04-16T06:26:29.496Z,5492
2023-04-16T06:27:30.105Z,4380
2023-04-16T06:28:30.709Z,3776
2023-04-16T06:29:40.646Z,3588
2023-04-16T06:30:32.896Z,3648
2023-04-16T06:31:33.630Z,3852
2023-04-16T06:32:34.259Z,4656
2023-04-16T06:33:34.856Z,5852
2023-04-16T06:34:35.505Z,7156
2023-04-16T06:35:36.102Z,7440
2023-04-16T06:36:36.700Z,7572
2023-04-16T06:37:37.302Z,7776
2023-04-16T06:38:37.903Z,7420
2023-04-16T06:39:38.559Z,7344
2023-04-16T06:40:39.129Z,8020
2023-04-16T06:41:39.732Z,8876
2023-04-16T06:42:40.344Z,8012
2023-04-16T06:43:40.997Z,7348
2023-04-16T06:44:41.542Z,7040
2023-04-16T06:45:42.143Z,6972
2023-04-16T06:46:42.749Z,6644
2023-04-16T06:47:43.411Z,6996
2023-04-16T06:48:43.969Z,7632
2023-04-16T06:49:44.562Z,8576
2023-04-16T06:50:45.175Z,9492
2023-04-16T06:51:45.769Z,9660
2023-04-16T06:52:46.369Z,8540
2023-04-16T06:53:46.965Z,9704
2023-04-16T06:54:47.566Z,10684
2023-04-16T06:55:48.173Z,9568
2023-04-16T06:56:48.770Z,9084
2023-04-16T06:57:49.390Z,9592
2023-04-16T06:58:49.998Z,10508
2023-04-16T06:59:50.596Z,11736
2023-04-16T07:00:51.235Z,13636
2023-04-16T07:01:51.888Z,13272
2023-04-16T07:02:52.647Z,12228
2023-04-16T07:03:53.470Z,11352
2023-04-16T07:04:54.324Z,12188
2023-04-16T07:05:54.971Z,10728
2023-04-16T07:06:55.544Z,10124
2023-04-16T07:07:56.160Z,10200
2023-04-16T07:08:56.765Z,10428
2023-04-16T07:09:57.373Z,8660
2023-04-16T07:10:57.976Z,7484
2023-04-16T07:11:58.590Z,8336
2023-04-16T07:12:59.175Z,8260
2023-04-16T07:13:59.777Z,9136
2023-04-16T07:15:00.403Z,9908
2023-04-16T07:16:01.027Z,12308
2023-04-16T07:17:01.620Z,14972
2023-04-16T07:18:02.240Z,13368
2023-04-16T07:19:02.845Z,13748
2023-04-16T07:20:03.471Z,13588
2023-04-16T07:21:04.090Z,12556
2023-04-16T07:22:04.695Z,12780
2023-04-16T07:23:05.312Z,11360
2023-04-16T07:24:05.939Z,14492
2023-04-16T07:25:06.527Z,16300
2023-04-16T07:26:07.140Z,15400
2023-04-16T07:27:07.745Z,15464
2023-04-16T07:28:08.346Z,16256
2023-04-16T07:29:09.287Z,14724
2023-04-16T07:30:09.999Z,17580
2023-04-16T07:31:10.597Z,16476
2023-04-16T07:32:12.898Z,12408
2023-04-16T07:33:12.789Z,11268
2023-04-16T07:34:13.402Z,12664
2023-04-16T07:35:14.000Z,15624
2023-04-16T07:36:14.592Z,16140
2023-04-16T07:37:15.200Z,15760
2023-04-16T07:38:15.824Z,15608
2023-04-16T07:39:16.419Z,17036
2023-04-16T07:40:17.017Z,15008
2023-04-16T07:41:17.622Z,14588
2023-04-16T07:42:18.241Z,15892
2023-04-16T07:43:18.858Z,16408
2023-04-16T07:44:19.459Z,16680
2023-04-16T07:45:20.060Z,13508
2023-04-16T07:46:20.710Z,14784
2023-04-16T07:47:21.290Z,16188
2023-04-16T07:48:21.885Z,15448
2023-04-16T07:49:22.488Z,14944
2023-04-16T07:50:23.145Z,15868
2023-04-16T07:51:23.708Z,17328
2023-04-16T07:52:24.320Z,15492
2023-04-16T07:53:24.927Z,13800
2023-04-16T07:54:27.279Z,15264
2023-04-16T07:55:27.134Z,14876
2023-04-16T07:56:27.728Z,14132
2023-04-16T07:57:28.330Z,13900
2023-04-16T07:58:28.931Z,14424
2023-04-16T08:00:30.135Z,11784
2023-04-16T08:01:30.736Z,13056
2023-04-16T08:02:31.449Z,13860
2023-04-16T08:03:32.245Z,12788
2023-04-16T08:04:33.127Z,12624
2023-04-16T08:05:33.925Z,13220
2023-04-16T08:06:34.524Z,12344
2023-04-16T08:07:35.126Z,14952
2023-04-16T08:08:35.754Z,17800
2023-04-16T08:09:36.353Z,20032
2023-04-16T08:10:36.961Z,20768
2023-04-16T08:11:37.562Z,20288
2023-04-16T08:12:38.161Z,16580
2023-04-16T08:13:38.763Z,12964
2023-04-16T08:14:39.361Z,11992
2023-04-16T08:15:39.977Z,12948
2023-04-16T08:16:40.606Z,14544
2023-04-16T08:17:41.257Z,13356
2023-04-16T08:18:41.817Z,14460
2023-04-16T08:19:42.421Z,13448
2023-04-16T08:20:43.021Z,13176
2023-04-16T08:21:43.649Z,11956
2023-04-16T08:22:44.225Z,10392
2023-04-16T08:23:44.829Z,11332
2023-04-16T08:24:45.430Z,13536
2023-04-16T08:25:46.032Z,14448
2023-04-16T08:26:46.655Z,17380
2023-04-16T08:27:47.261Z,13840
2023-04-16T08:28:47.857Z,11288
2023-04-16T08:29:48.498Z,11624
2023-04-16T08:30:49.071Z,11544
2023-04-16T08:31:49.729Z,11516
2023-04-16T08:32:50.595Z,13580
2023-04-16T08:33:51.228Z,13724
2023-04-16T08:34:51.827Z,13540
2023-04-16T08:35:52.428Z,13108
2023-04-16T08:36:53.034Z,13224
2023-04-16T08:37:53.635Z,15068
2023-04-16T08:38:54.257Z,18752
2023-04-16T08:39:54.865Z,20160
2023-04-16T08:40:55.482Z,17068
2023-04-16T08:41:56.085Z,12440
2023-04-16T08:42:56.682Z,11636
2023-04-16T08:43:57.287Z,11192
2023-04-16T08:44:57.889Z,11712
2023-04-16T08:45:58.489Z,14476
2023-04-16T08:46:59.294Z,15480
2023-04-16T08:47:59.979Z,19328
2023-04-16T08:49:00.560Z,19200
2023-04-16T08:50:01.162Z,14132
2023-04-16T08:51:01.809Z,9660
2023-04-16T08:52:02.374Z,8252
2023-04-16T08:53:02.978Z,9564
2023-04-16T08:54:03.590Z,11848
2023-04-16T08:55:04.209Z,10252
2023-04-16T08:56:04.811Z,8684
2023-04-16T08:57:05.418Z,8676
2023-04-16T08:58:06.009Z,7736
2023-04-16T08:59:06.676Z,6508
2023-04-16T09:00:07.226Z,7000
2023-04-16T09:01:07.827Z,7932
2023-04-16T09:02:08.487Z,9728
2023-04-16T09:03:09.303Z,9284
2023-04-16T09:04:10.033Z,8608
2023-04-16T09:05:10.673Z,8604
2023-04-16T09:06:11.259Z,10320
2023-04-16T09:07:11.858Z,11664
2023-04-16T09:08:12.475Z,12724
2023-04-16T09:09:13.083Z,15960
2023-04-16T09:10:13.685Z,15272
2023-04-16T09:11:14.307Z,13688
2023-04-16T09:12:14.909Z,12656
2023-04-16T09:13:15.511Z,10860
2023-04-16T09:14:16.110Z,8548
2023-04-16T09:15:16.709Z,8708
2023-04-16T09:16:17.360Z,9748
2023-04-16T09:17:17.938Z,9856
2023-04-16T09:18:18.534Z,10344
2023-04-16T09:19:19.141Z,12744
2023-04-16T09:20:19.785Z,12304
2023-04-16T09:21:22.114Z,11388
2023-04-16T09:22:21.971Z,10356
2023-04-16T09:23:22.580Z,11016
2023-04-16T09:24:23.175Z,10604
2023-04-16T09:25:23.775Z,10240
2023-04-16T09:26:24.376Z,10944
2023-04-16T09:27:26.099Z,14908
2023-04-16T09:28:26.573Z,16136
2023-04-16T09:29:27.174Z,14860
2023-04-16T09:30:27.772Z,15720
2023-04-16T09:31:28.399Z,16304
2023-04-16T09:32:29.113Z,15248
2023-04-16T09:33:29.689Z,15856
2023-04-16T09:34:30.291Z,19264
2023-04-16T09:35:30.892Z,19744
2023-04-16T09:36:31.498Z,19520
2023-04-16T09:37:32.121Z,16072
2023-04-16T09:38:32.721Z,16220
2023-04-16T09:39:33.322Z,17108
2023-04-16T09:40:33.925Z,19712
2023-04-16T09:41:34.546Z,21536
2023-04-16T09:42:35.158Z,20672
2023-04-16T09:43:35.856Z,19360
2023-04-16T09:44:36.400Z,13492
2023-04-16T09:45:37.037Z,13180
2023-04-16T09:46:37.610Z,15536
2023-04-16T09:47:38.302Z,12944
2023-04-16T09:48:38.888Z,12464
2023-04-16T09:49:39.483Z,17396
2023-04-16T09:50:40.088Z,20224
2023-04-16T09:51:40.684Z,17076
2023-04-16T09:52:41.286Z,15812
2023-04-16T09:54:55.238Z,15400
2023-04-16T09:55:55.839Z,12896
2023-04-16T09:56:56.448Z,15152
2023-04-16T09:57:57.067Z,16400
2023-04-16T09:58:57.664Z,17308
2023-04-16T09:59:58.288Z,17868
2023-04-16T10:00:58.957Z,18912
2023-04-16T10:02:14.855Z,18464
2023-04-16T10:03:01.241Z,20064
2023-04-16T10:04:01.903Z,18528
2023-04-16T10:05:02.457Z,20160
2023-04-16T10:06:03.051Z,17596
2023-04-16T10:07:03.650Z,16648
2023-04-16T10:08:04.255Z,17792
2023-04-16T10:09:04.856Z,17296
2023-04-16T10:10:05.504Z,15724
2023-04-16T10:11:06.055Z,14084
2023-04-16T10:12:06.657Z,15828
2023-04-16T10:13:07.258Z,13992
2023-04-16T10:14:07.856Z,14164
2023-04-16T10:15:08.463Z,17024
2023-04-16T10:16:09.068Z,16100
2023-04-16T10:17:09.841Z,15540
2023-04-16T10:18:10.596Z,16724
2023-04-16T10:19:11.319Z,19648
2023-04-16T10:20:11.760Z,21568
2023-04-16T10:21:12.380Z,23232
2023-04-16T10:22:12.980Z,21792
2023-04-16T10:23:13.584Z,20896
2023-04-16T10:24:14.195Z,27328
2023-04-16T10:25:14.788Z,26144
2023-04-16T10:26:15.389Z,26112
2023-04-16T10:27:15.987Z,29312
2023-04-16T10:28:16.592Z,31872
2023-04-16T10:29:17.191Z,30016
2023-04-16T10:30:17.847Z,26592
2023-04-16T10:31:18.497Z,22656
2023-04-16T10:32:19.078Z,26304
2023-04-16T10:33:19.651Z,24448
2023-04-16T10:34:20.252Z,24864
2023-04-16T10:35:20.858Z,28352
2023-04-16T10:36:21.463Z,26752
2023-04-16T10:37:22.077Z,26112
2023-04-16T10:38:22.682Z,21632
2023-04-16T10:39:23.312Z,21600
2023-04-16T10:40:23.917Z,23776
2023-04-16T10:41:24.520Z,26048
2023-04-16T10:42:25.120Z,24352
2023-04-16T10:43:25.769Z,22720
2023-04-16T10:44:26.330Z,20288
2023-04-16T10:45:26.918Z,17460
2023-04-16T10:46:27.566Z,20960
2023-04-16T10:47:28.178Z,21024
2023-04-16T10:48:33.171Z,18848
2023-04-16T10:49:30.351Z,18880
2023-04-16T10:50:30.944Z,20160
2023-04-16T10:51:31.630Z,19392
2023-04-16T10:52:32.241Z,19232
2023-04-16T10:53:32.844Z,20736
2023-04-16T10:54:33.443Z,22528
2023-04-16T10:55:34.045Z,21984
2023-04-16T10:56:34.664Z,21024
2023-04-16T10:57:35.249Z,24192
2023-04-16T10:58:35.851Z,26528
2023-04-16T10:59:36.449Z,24960
2023-04-16T11:00:37.050Z,23168
2023-04-16T11:01:37.854Z,23104
2023-04-16T11:02:38.726Z,24608
2023-04-16T11:03:39.539Z,24096
2023-04-16T11:04:40.334Z,22720
2023-04-16T11:05:40.990Z,22080
2023-04-16T11:06:41.591Z,22400
2023-04-16T11:07:42.198Z,23712
2023-04-16T11:08:53.873Z,25216
2023-04-16T11:09:44.388Z,24800
2023-04-16T11:10:44.996Z,27648
2023-04-16T11:11:45.601Z,27520
2023-04-16T11:12:46.218Z,25888
2023-04-16T11:13:46.818Z,27040
2023-04-16T11:14:47.419Z,27712
2023-04-16T11:15:48.051Z,26368
2023-04-16T11:16:48.669Z,26656
2023-04-16T11:17:49.278Z,28896
2023-04-16T11:18:51.377Z,28224
2023-04-16T11:19:51.450Z,26848
2023-04-16T11:20:53.043Z,24832
2023-04-16T11:21:53.646Z,24128
2023-04-16T11:22:54.265Z,23200
2023-04-16T11:23:54.867Z,21952
2023-04-16T11:24:55.491Z,20160
2023-04-16T11:25:56.071Z,18720
2023-04-16T11:26:56.674Z,19520
2023-04-16T11:27:57.292Z,21760
2023-04-16T11:28:57.892Z,20576
2023-04-16T11:29:58.512Z,21056
2023-04-16T11:30:59.153Z,20416
2023-04-16T11:31:59.716Z,18688
2023-04-16T11:33:00.371Z,15856
2023-04-16T11:34:00.946Z,15604
2023-04-16T11:35:01.547Z,13284
2023-04-16T11:36:02.148Z,13520
2023-04-16T11:37:02.748Z,15948
2023-04-16T11:38:03.350Z,17140
2023-04-16T11:39:03.947Z,19616
2023-04-16T11:40:04.550Z,16488
2023-04-16T11:41:05.173Z,16560
2023-04-16T11:42:05.811Z,15760
2023-04-16T11:43:06.405Z,13752
2023-04-16T11:44:07.004Z,12264
2023-04-16T11:45:07.607Z,11276
2023-04-16T11:46:20.612Z,10856
2023-04-16T11:47:09.840Z,9540
2023-04-16T11:48:11.273Z,10356
2023-04-16T11:49:12.079Z,10704
2023-04-16T11:50:12.900Z,10052
2023-04-16T11:51:13.454Z,9704
2023-04-16T11:52:14.083Z,12052
2023-04-16T11:53:14.674Z,12452
2023-04-16T11:54:15.293Z,11276
2023-04-16T11:55:15.898Z,9788
2023-04-16T11:56:16.496Z,9604
2023-04-16T11:57:17.101Z,10652
2023-04-16T11:58:17.722Z,11772
2023-04-16T11:59:18.324Z,13124
2023-04-16T12:00:18.916Z,14240
2023-04-16T12:01:20.512Z,15380
2023-04-16T12:02:21.215Z,15620
2023-04-16T12:03:21.924Z,14760
2023-04-16T12:04:22.516Z,16456
2023-04-16T12:05:23.038Z,16460
2023-04-16T12:06:24.395Z,13688
2023-04-16T12:07:25.078Z,12956
2023-04-16T12:08:25.676Z,13040
2023-04-16T12:09:26.284Z,11720
2023-04-16T12:10:26.885Z,9792
2023-04-16T12:11:27.516Z,9120
2023-04-16T12:12:28.204Z,9648
2023-04-16T12:13:28.720Z,9676
2023-04-16T12:14:29.319Z,8832
2023-04-16T12:15:29.918Z,8792
2023-04-16T12:16:30.530Z,9684
2023-04-16T12:17:31.163Z,10196
2023-04-16T12:18:31.748Z,9804
2023-04-16T12:19:32.343Z,9168
2023-04-16T12:20:32.944Z,9544
2023-04-16T12:21:33.543Z,10720
2023-04-16T12:22:36.062Z,11076
2023-04-16T12:23:35.741Z,12704
2023-04-16T12:24:36.344Z,14544
2023-04-16T12:25:36.944Z,14616
2023-04-16T12:26:37.545Z,15608
2023-04-16T12:27:38.149Z,17732
2023-04-16T12:28:38.869Z,19520
2023-04-16T12:29:39.419Z,19552
2023-04-16T12:30:40.077Z,17704
2023-04-16T12:31:40.621Z,16880
2023-04-16T12:32:41.254Z,16656
2023-04-16T12:33:41.856Z,17480
2023-04-16T12:34:48.815Z,18156
2023-04-16T12:35:44.077Z,19456
2023-04-16T12:36:44.685Z,18816
2023-04-16T12:37:45.278Z,17876
2023-04-16T12:38:45.878Z,16868
2023-04-16T12:39:48.072Z,16204
2023-04-16T12:40:48.079Z,14564
2023-04-16T12:41:48.699Z,15504
2023-04-16T12:42:49.316Z,18368
2023-04-16T12:43:49.899Z,20000
2023-04-16T12:44:50.511Z,21888
2023-04-16T12:45:51.145Z,22176
2023-04-16T12:46:51.799Z,20800
2023-04-16T12:47:52.405Z,20160
2023-04-16T12:48:53.002Z,21984
2023-04-16T12:49:53.569Z,24960
2023-04-16T12:50:54.175Z,25888
2023-04-16T12:51:54.775Z,24096
2023-04-16T12:52:55.371Z,21600
2023-04-16T12:53:55.977Z,22912
2023-04-16T12:54:56.594Z,24032
2023-04-16T12:55:57.202Z,24416
2023-04-16T12:56:57.822Z,24480
2023-04-16T12:57:58.458Z,24416
2023-04-16T12:58:59.044Z,24928
2023-04-16T12:59:59.673Z,21920
2023-04-16T13:01:00.268Z,20896
2023-04-16T13:02:00.922Z,24288
2023-04-16T13:03:01.631Z,27360
2023-04-16T13:04:02.448Z,27904
2023-04-16T13:05:02.874Z,27360
2023-04-16T13:06:03.477Z,29792
2023-04-16T13:07:04.079Z,31840
2023-04-16T13:08:04.686Z,31552
2023-04-16T13:09:05.287Z,29344
2023-04-16T13:10:05.892Z,29152
2023-04-16T13:11:06.512Z,31584
2023-04-16T13:12:07.118Z,32384
2023-04-16T13:13:07.714Z,32736
2023-04-16T13:14:08.318Z,31968
2023-04-16T13:15:08.925Z,29088
2023-04-16T13:16:09.556Z,28256
2023-04-16T13:17:10.146Z,29344
2023-04-16T13:18:10.746Z,27424
2023-04-16T13:19:11.517Z,26912
2023-04-16T13:20:11.970Z,27488
2023-04-16T13:21:12.568Z,25152
2023-04-16T13:22:13.171Z,23776
2023-04-16T13:23:13.773Z,23072
2023-04-16T13:24:14.378Z,20832
2023-04-16T13:25:14.979Z,19680
2023-04-16T13:26:15.575Z,19008
2023-04-16T13:27:16.189Z,16940
2023-04-16T13:28:16.775Z,15536
2023-04-16T13:29:17.384Z,15548
2023-04-16T13:30:17.981Z,15980
2023-04-16T13:31:18.608Z,16344
2023-04-16T13:32:19.283Z,16228
2023-04-16T13:33:19.888Z,15688
2023-04-16T13:34:20.487Z,15724
2023-04-16T13:35:21.089Z,15920
2023-04-16T13:36:21.688Z,15892
2023-04-16T13:37:22.292Z,16564
2023-04-16T13:38:22.893Z,17120
2023-04-16T13:39:23.495Z,18208
2023-04-16T13:40:24.100Z,19520
2023-04-16T13:41:24.696Z,20416
2023-04-16T13:42:25.299Z,22336
2023-04-16T13:43:25.916Z,25376
2023-04-16T13:44:26.521Z,27136